createdAt,value
2022-11-24T00:01:26.192Z,2.75
2022-11-24T00:04:05.177Z,2.75
2022-11-24T00:06:34.886Z,2.76
2022-11-24T00:09:04.258Z,2.72
2022-11-24T00:11:33.989Z,2.66
2022-11-24T00:14:02.637Z,2.65
2022-11-24T00:16:35.444Z,2.64
2022-11-24T00:19:06.142Z,2.60
2022-11-24T00:21:33.797Z,2.58
2022-11-24T00:24:02.252Z,2.60
2022-11-24T00:26:32.354Z,2.61
2022-11-24T00:29:02.303Z,2.60
2022-11-24T00:31:31.951Z,2.60
2022-11-24T00:34:01.766Z,2.59
2022-11-24T00:36:31.302Z,2.59
2022-11-24T00:39:01.374Z,2.58
2022-11-24T00:41:29.633Z,2.59
2022-11-24T00:43:58.312Z,2.58
2022-11-24T00:46:27.127Z,2.55
2022-11-24T00:48:55.564Z,2.57
2022-11-24T00:51:27.107Z,2.59
2022-11-24T00:53:56.350Z,2.58
2022-11-24T00:56:25.015Z,2.55
2022-11-24T00:58:52.827Z,2.51
2022-11-24T01:01:26.234Z,2.47
2022-11-24T01:03:57.325Z,2.46
2022-11-24T01:06:26.265Z,2.52
2022-11-24T01:08:54.865Z,2.62
2022-11-24T01:11:25.617Z,2.70
2022-11-24T01:13:57.713Z,2.77
2022-11-24T01:16:31.612Z,2.81
2022-11-24T01:18:59.481Z,2.84
2022-11-24T01:21:27.281Z,2.84
2022-11-24T01:23:54.979Z,2.86
2022-11-24T01:26:23.065Z,2.89
2022-11-24T01:28:58.258Z,2.90
2022-11-24T01:31:26.974Z,2.95
2022-11-24T01:33:55.189Z,2.97
2022-11-24T01:36:22.973Z,3.00
2022-11-24T01:38:50.900Z,3.06
2022-11-24T01:41:21.404Z,3.12
2022-11-24T01:43:50.247Z,3.13
2022-11-24T01:46:36.917Z,3.16
2022-11-24T01:49:08.073Z,3.19
2022-11-24T01:51:45.361Z,3.21
2022-11-24T01:54:16.804Z,3.21
2022-11-24T01:56:47.158Z,3.22
2022-11-24T01:59:17.936Z,3.21
2022-11-24T02:01:47.835Z,3.21
2022-11-24T02:04:18.445Z,3.17
2022-11-24T02:06:46.513Z,3.09
2022-11-24T02:09:44.704Z,3.01
2022-11-24T02:12:12.545Z,2.95
2022-11-24T02:14:42.240Z,2.95
2022-11-24T02:17:10.382Z,2.92
2022-11-24T02:19:40.823Z,2.91
2022-11-24T02:22:15.479Z,2.89
2022-11-24T02:25:11.920Z,2.94
2022-11-24T02:27:39.642Z,2.96
2022-11-24T02:30:40.649Z,2.85
2022-11-24T02:33:10.349Z,2.76
2022-11-24T02:35:38.037Z,2.77
2022-11-24T02:38:05.759Z,2.82
2022-11-24T02:40:33.507Z,2.86
2022-11-24T02:43:07.970Z,2.89
2022-11-24T02:45:35.774Z,2.89
2022-11-24T02:48:03.556Z,2.90
2022-11-24T02:50:31.251Z,2.92
2022-11-24T02:52:58.901Z,2.92
2022-11-24T02:55:26.813Z,2.91
2022-11-24T02:57:54.518Z,2.91
2022-11-24T03:00:22.728Z,2.92
2022-11-24T03:02:50.591Z,2.91
2022-11-24T03:05:18.666Z,2.84
2022-11-24T03:07:46.502Z,2.80
2022-11-24T03:10:14.286Z,2.76
2022-11-24T03:12:42.163Z,2.74
2022-11-24T03:15:10.625Z,2.69
2022-11-24T03:17:38.265Z,2.68
2022-11-24T03:20:06.685Z,2.74
2022-11-24T03:22:34.406Z,2.80
2022-11-24T03:25:02.179Z,2.84
2022-11-24T03:27:31.030Z,2.86
2022-11-24T03:29:59.059Z,2.82
2022-11-24T03:32:26.713Z,2.78
2022-11-24T03:34:54.500Z,2.77
2022-11-24T03:37:22.678Z,2.77
2022-11-24T03:39:50.560Z,2.75
2022-11-24T03:42:18.240Z,2.70
2022-11-24T03:44:45.921Z,2.66
2022-11-24T03:47:13.745Z,2.61
2022-11-24T03:49:41.647Z,2.48
2022-11-24T03:52:09.790Z,2.39
2022-11-24T03:54:37.466Z,2.33
2022-11-24T03:57:05.568Z,2.32
2022-11-24T03:59:33.236Z,2.35
2022-11-24T04:02:00.962Z,2.38
2022-11-24T04:04:28.772Z,2.44
2022-11-24T04:06:56.702Z,2.51
2022-11-24T04:09:24.386Z,2.57
2022-11-24T04:12:15.001Z,2.58
2022-11-24T04:14:42.634Z,2.70
2022-11-24T04:17:10.506Z,2.79
2022-11-24T04:19:38.291Z,2.83
2022-11-24T04:22:06.071Z,2.79
2022-11-24T04:24:34.093Z,2.70
2022-11-24T04:27:02.174Z,2.65
2022-11-24T04:29:30.227Z,2.57
2022-11-24T04:31:57.965Z,2.53
2022-11-24T04:34:25.716Z,2.58
2022-11-24T04:36:53.464Z,2.63
2022-11-24T04:39:25.154Z,2.67
2022-11-24T04:41:54.911Z,2.72
2022-11-24T04:44:22.662Z,2.79
2022-11-24T04:46:50.467Z,2.87
2022-11-24T04:49:18.560Z,2.93
2022-11-24T04:51:46.478Z,2.99
2022-11-24T04:54:14.496Z,3.04
2022-11-24T04:56:43.856Z,3.10
2022-11-24T04:59:15.395Z,3.13
2022-11-24T05:01:47.003Z,3.13
2022-11-24T05:04:15.887Z,3.12
2022-11-24T05:06:43.833Z,3.12
2022-11-24T05:09:16.082Z,3.09
2022-11-24T05:11:43.874Z,3.06
2022-11-24T05:14:11.653Z,3.04
2022-11-24T05:16:39.590Z,3.00
2022-11-24T05:19:07.716Z,3.00
2022-11-24T05:21:35.499Z,3.01
2022-11-24T05:24:03.561Z,3.01
2022-11-24T05:26:31.346Z,3.03
2022-11-24T05:28:59.141Z,3.05
2022-11-24T05:31:27.128Z,3.12
2022-11-24T05:33:54.966Z,3.11
2022-11-24T05:36:41.605Z,3.10
2022-11-24T05:39:09.580Z,3.09
2022-11-24T05:41:37.400Z,3.05
2022-11-24T05:44:05.382Z,3.04
2022-11-24T05:46:33.259Z,3.07
2022-11-24T05:49:01.171Z,3.08
2022-11-24T05:51:30.600Z,3.13
2022-11-24T05:53:58.307Z,3.18
2022-11-24T05:56:26.048Z,3.24
2022-11-24T05:58:53.800Z,3.30
2022-11-24T06:01:21.693Z,3.36
2022-11-24T06:03:49.428Z,3.38
2022-11-24T06:06:17.298Z,3.39
2022-11-24T06:08:45.020Z,3.39
2022-11-24T06:11:18.834Z,3.37
2022-11-24T06:13:48.715Z,3.32
2022-11-24T06:16:16.843Z,3.19
2022-11-24T06:18:44.689Z,3.14
2022-11-24T06:21:12.541Z,3.16
2022-11-24T06:23:40.748Z,3.08
2022-11-24T06:26:09.369Z,3.01
2022-11-24T06:28:37.498Z,2.98
2022-11-24T06:31:06.009Z,2.93
2022-11-24T06:33:36.344Z,2.87
2022-11-24T06:36:06.486Z,2.87
2022-11-24T06:38:35.949Z,2.91
2022-11-24T06:41:09.808Z,2.96
2022-11-24T06:43:37.781Z,2.99
2022-11-24T06:46:05.946Z,3.09
2022-11-24T06:48:34.226Z,3.18
2022-11-24T06:51:04.474Z,3.25
2022-11-24T06:53:39.737Z,3.31
2022-11-24T06:56:15.750Z,3.35
2022-11-24T06:58:47.322Z,3.40
2022-11-24T07:01:22.609Z,3.41
2022-11-24T07:03:52.059Z,3.34
2022-11-24T07:06:21.865Z,3.35
2022-11-24T07:08:49.875Z,3.40
2022-11-24T07:11:20.985Z,3.42
2022-11-24T07:13:49.183Z,3.44
2022-11-24T07:16:22.405Z,3.47
2022-11-24T07:18:52.217Z,3.49
2022-11-24T07:21:21.524Z,3.45
2022-11-24T07:23:54.077Z,3.42
2022-11-24T07:26:22.793Z,3.46
2022-11-24T07:28:51.170Z,3.51
2022-11-24T07:31:21.660Z,3.58
2022-11-24T07:33:53.672Z,3.65
2022-11-24T07:36:22.478Z,3.67
2022-11-24T07:38:50.748Z,3.69
2022-11-24T07:41:19.747Z,3.73
2022-11-24T07:43:48.352Z,3.76
2022-11-24T07:46:17.709Z,3.81
2022-11-24T07:48:46.390Z,3.87
2022-11-24T07:51:14.781Z,3.92
2022-11-24T07:53:43.265Z,3.97
2022-11-24T07:56:11.147Z,3.99
2022-11-24T07:58:38.953Z,3.95
2022-11-24T08:01:15.655Z,3.81
2022-11-24T08:03:45.204Z,3.73
2022-11-24T08:06:24.999Z,3.77
2022-11-24T08:08:53.371Z,3.80
2022-11-24T08:11:21.257Z,3.83
2022-11-24T08:13:49.080Z,3.87
2022-11-24T08:16:18.230Z,3.91
2022-11-24T08:18:50.943Z,3.96
2022-11-24T08:21:19.477Z,4.01
2022-11-24T08:23:47.481Z,4.09
2022-11-24T08:26:18.798Z,4.12
2022-11-24T08:28:47.425Z,4.12
2022-11-24T08:31:18.777Z,4.17
2022-11-24T08:33:47.020Z,4.10
2022-11-24T08:36:18.062Z,4.06
2022-11-24T08:38:46.300Z,3.95
2022-11-24T08:41:15.990Z,4.00
2022-11-24T08:43:43.889Z,4.06
2022-11-24T08:46:14.144Z,4.15
2022-11-24T08:48:41.965Z,4.27
2022-11-24T08:51:12.302Z,4.33
2022-11-24T08:53:40.443Z,4.39
2022-11-24T08:56:09.329Z,4.46
2022-11-24T08:58:37.698Z,4.57
2022-11-24T09:01:07.626Z,4.68
2022-11-24T09:03:35.758Z,4.74
2022-11-24T09:06:04.068Z,4.71
2022-11-24T09:08:33.205Z,4.76
2022-11-24T09:11:02.606Z,4.85
2022-11-24T09:13:30.494Z,4.93
2022-11-24T09:16:06.833Z,5.02
2022-11-24T09:18:39.849Z,5.15
2022-11-24T09:21:08.213Z,5.27
2022-11-24T09:23:36.611Z,5.48
2022-11-24T09:26:06.395Z,5.67
2022-11-24T09:28:34.638Z,5.90
2022-11-24T09:31:04.661Z,6.11
2022-11-24T09:33:33.575Z,6.26
2022-11-24T09:36:01.538Z,6.21
2022-11-24T09:38:29.736Z,6.15
2022-11-24T09:41:15.157Z,6.03
2022-11-24T09:43:56.827Z,5.94
2022-11-24T09:46:33.827Z,5.85
2022-11-24T09:49:03.597Z,5.85
2022-11-24T09:51:32.402Z,5.80
2022-11-24T09:54:09.232Z,5.76
2022-11-24T09:56:38.602Z,5.72
2022-11-24T09:59:18.765Z,5.63
2022-11-24T10:01:48.092Z,5.49
2022-11-24T10:04:28.602Z,5.47
2022-11-24T10:06:56.566Z,5.47
2022-11-24T10:09:45.405Z,5.45
2022-11-24T10:12:30.855Z,5.43
2022-11-24T10:15:25.842Z,5.40
2022-11-24T10:18:16.733Z,5.30
2022-11-24T10:20:54.926Z,5.26
2022-11-24T10:23:56.698Z,5.24
2022-11-24T10:26:38.699Z,5.29
2022-11-24T10:29:14.131Z,5.33
2022-11-24T10:31:43.341Z,5.35
2022-11-24T10:34:27.846Z,5.36
2022-11-24T10:37:23.851Z,5.43
2022-11-24T10:40:04.119Z,5.49
2022-11-24T10:42:37.245Z,5.51
2022-11-24T10:45:31.700Z,5.52
2022-11-24T10:47:59.495Z,5.50
2022-11-24T10:50:31.441Z,5.45
2022-11-24T10:53:08.588Z,5.41
2022-11-24T10:55:54.713Z,5.41
2022-11-24T10:58:36.060Z,5.40
2022-11-24T11:01:15.101Z,5.40
2022-11-24T11:03:48.997Z,5.43
2022-11-24T11:06:30.559Z,5.44
2022-11-24T11:09:07.513Z,5.45
2022-11-24T11:11:36.974Z,5.46
2022-11-24T11:14:06.628Z,5.51
2022-11-24T11:20:58.593Z,5.48
2022-11-24T11:23:31.788Z,5.38
2022-11-24T11:26:22.605Z,5.34
2022-11-24T11:34:50.672Z,5.41
2022-11-24T11:37:20.314Z,5.43
2022-11-24T11:39:50.682Z,5.33
2022-11-24T11:43:03.786Z,5.23
2022-11-24T11:45:29.975Z,5.17
2022-11-24T11:48:01.054Z,5.21
2022-11-24T11:51:14.878Z,5.24
2022-11-24T11:53:36.996Z,5.26
2022-11-24T11:56:27.057Z,5.30
2022-11-24T11:59:23.046Z,5.38
2022-11-24T12:02:09.531Z,5.44
2022-11-24T12:04:53.698Z,5.40
2022-11-24T12:07:36.780Z,5.47
2022-11-24T12:10:10.361Z,5.53
2022-11-24T12:12:47.784Z,5.61
2022-11-24T12:15:34.098Z,5.71
2022-11-24T12:18:40.358Z,5.81
2022-11-24T12:21:27.060Z,5.83
2022-11-24T12:23:58.040Z,5.81
2022-11-24T12:26:58.265Z,5.92
2022-11-24T12:29:48.166Z,6.07
2022-11-24T12:32:41.172Z,6.13
2022-11-24T12:35:20.559Z,6.19
2022-11-24T12:38:25.351Z,6.20
2022-11-24T12:41:39.750Z,6.17
2022-11-24T12:43:56.563Z,6.16
2022-11-24T12:47:03.751Z,6.17
2022-11-24T12:49:45.700Z,6.17
2022-11-24T12:52:28.975Z,6.10
2022-11-24T12:54:56.968Z,6.08
2022-11-24T12:57:38.838Z,6.11
2022-11-24T13:00:24.111Z,6.15
2022-11-24T13:03:00.941Z,6.18
2022-11-24T13:05:46.083Z,6.18
2022-11-24T13:08:14.414Z,6.20
2022-11-24T13:10:58.368Z,6.19
2022-11-24T13:13:30.273Z,6.12
2022-11-24T13:16:35.034Z,6.02
2022-11-24T13:18:57.273Z,5.97
2022-11-24T13:21:31.315Z,5.96
2022-11-24T13:24:02.400Z,5.94
2022-11-24T13:26:33.581Z,5.98
2022-11-24T13:29:23.847Z,6.07
2022-11-24T13:31:57.106Z,6.14
2022-11-24T13:34:43.172Z,6.15
2022-11-24T13:37:28.881Z,6.11
2022-11-24T13:40:13.141Z,6.16
2022-11-24T13:42:57.299Z,6.15
2022-11-24T13:45:41.534Z,6.07
2022-11-24T13:48:22.355Z,6.08
2022-11-24T13:50:50.718Z,6.18
2022-11-24T13:53:18.945Z,6.27
2022-11-24T13:56:00.737Z,6.36
2022-11-24T13:58:36.489Z,6.39
2022-11-24T14:01:11.412Z,6.37
2022-11-24T14:04:43.259Z,6.33
2022-11-24T14:07:08.716Z,6.29
2022-11-24T14:09:42.261Z,6.21
2022-11-24T14:12:17.243Z,6.17
2022-11-24T14:14:47.980Z,6.06
2022-11-24T14:17:15.661Z,5.99
2022-11-24T14:19:48.755Z,5.96
2022-11-24T14:22:17.176Z,5.96
2022-11-24T14:24:47.035Z,5.98
2022-11-24T14:27:17.138Z,5.99
2022-11-24T14:29:59.802Z,5.98
2022-11-24T14:32:27.825Z,5.93
2022-11-24T14:34:56.998Z,5.86
2022-11-24T14:37:24.947Z,5.83
2022-11-24T14:39:52.812Z,5.81
2022-11-24T14:42:23.139Z,5.78
2022-11-24T14:44:56.755Z,5.79
2022-11-24T14:47:31.394Z,5.82
2022-11-24T14:50:20.103Z,5.86
2022-11-24T14:52:58.200Z,5.88
2022-11-24T14:55:29.379Z,5.90
2022-11-24T14:57:58.565Z,5.95
2022-11-24T15:00:31.656Z,5.96
2022-11-24T15:03:02.193Z,5.97
2022-11-24T15:05:58.392Z,5.95
2022-11-24T15:08:27.964Z,5.93
2022-11-24T15:11:00.867Z,5.89
2022-11-24T15:13:31.086Z,5.85
2022-11-24T15:16:03.148Z,5.84
2022-11-24T15:18:33.706Z,5.82
2022-11-24T15:21:01.735Z,5.81
2022-11-24T15:23:33.449Z,5.79
2022-11-24T15:26:01.372Z,5.78
2022-11-24T15:28:32.677Z,5.76
2022-11-24T15:31:06.416Z,5.77
2022-11-24T15:33:34.237Z,5.79
2022-11-24T15:36:02.310Z,5.78
2022-11-24T15:38:30.081Z,5.77
2022-11-24T15:40:59.311Z,5.74
2022-11-24T15:43:32.359Z,5.63
2022-11-24T15:46:01.519Z,5.50
2022-11-24T15:48:29.659Z,5.47
2022-11-24T15:50:58.959Z,5.50
2022-11-24T15:53:45.724Z,5.51
2022-11-24T15:56:33.083Z,5.48
2022-11-24T15:59:01.874Z,5.34
2022-11-24T16:01:31.611Z,5.25
2022-11-24T16:04:00.167Z,5.27
2022-11-24T16:06:27.972Z,5.27
2022-11-24T16:08:55.818Z,5.30
2022-11-24T16:11:23.742Z,5.30
2022-11-24T16:13:53.948Z,5.30
2022-11-24T16:16:23.377Z,5.36
2022-11-24T16:18:51.206Z,5.42
2022-11-24T16:21:18.951Z,5.48
2022-11-24T16:23:47.885Z,5.53
2022-11-24T16:26:15.747Z,5.56
2022-11-24T16:28:45.317Z,5.59
2022-11-24T16:31:15.795Z,5.60
2022-11-24T16:33:47.101Z,5.59
2022-11-24T16:36:15.239Z,5.55
2022-11-24T16:38:43.189Z,5.52
2022-11-24T16:41:11.562Z,5.49
2022-11-24T16:43:39.508Z,5.44
2022-11-24T16:46:23.726Z,5.40
2022-11-24T16:48:55.196Z,5.39
2022-11-24T16:51:23.882Z,5.37
2022-11-24T16:53:59.884Z,5.38
2022-11-24T16:56:28.922Z,5.40
2022-11-24T16:58:57.087Z,5.42
2022-11-24T17:01:26.132Z,5.45
2022-11-24T17:03:54.041Z,5.49
2022-11-24T17:06:21.983Z,5.50
2022-11-24T17:08:50.027Z,5.49
2022-11-24T17:11:20.699Z,5.49
2022-11-24T17:13:49.236Z,5.49
2022-11-24T17:16:19.847Z,5.47
2022-11-24T17:18:49.435Z,5.45
2022-11-24T17:21:22.907Z,5.41
2022-11-24T17:23:55.334Z,5.38
2022-11-24T17:26:23.870Z,5.34
2022-11-24T17:28:52.022Z,5.26
2022-11-24T17:31:27.611Z,5.13
2022-11-24T17:33:57.216Z,5.04
2022-11-24T17:36:26.385Z,4.98
2022-11-24T17:38:54.482Z,5.02
2022-11-24T17:41:22.651Z,5.09
2022-11-24T17:43:51.972Z,5.16
2022-11-24T17:46:19.924Z,5.23
2022-11-24T17:48:48.032Z,5.32
2022-11-24T17:51:19.234Z,5.36
2022-11-24T17:53:49.463Z,5.37
2022-11-24T17:56:25.529Z,5.38
2022-11-24T17:59:00.027Z,5.36
2022-11-24T18:01:30.190Z,5.32
2022-11-24T18:04:01.254Z,5.29
2022-11-24T18:06:29.299Z,5.26
2022-11-24T18:08:58.032Z,5.22
2022-11-24T18:11:31.333Z,5.14
2022-11-24T18:14:03.041Z,5.06
2022-11-24T18:16:32.520Z,5.03
2022-11-24T18:19:11.361Z,5.03
2022-11-24T18:21:41.279Z,5.05
2022-11-24T18:24:10.262Z,5.07
2022-11-24T18:26:39.366Z,5.04
2022-11-24T18:29:07.823Z,5.03
2022-11-24T18:31:36.321Z,5.06
2022-11-24T18:34:05.643Z,5.06
2022-11-24T18:36:33.755Z,5.10
2022-11-24T18:39:03.539Z,5.13
2022-11-24T18:41:32.019Z,5.14
2022-11-24T18:44:03.020Z,5.13
2022-11-24T18:46:30.816Z,5.10
2022-11-24T18:48:59.204Z,5.08
2022-11-24T18:51:27.291Z,5.04
2022-11-24T18:53:55.456Z,5.00
2022-11-24T18:56:23.933Z,4.96
2022-11-24T18:58:56.830Z,4.89
2022-11-24T19:01:27.327Z,4.83
2022-11-24T19:04:00.671Z,4.76
2022-11-24T19:06:32.628Z,4.70
2022-11-24T19:09:10.578Z,4.71
2022-11-24T19:11:40.518Z,4.76
2022-11-24T19:14:11.012Z,4.80
2022-11-24T19:16:39.466Z,4.84
2022-11-24T19:19:07.866Z,4.85
2022-11-24T19:21:42.482Z,4.86
2022-11-24T19:24:11.144Z,4.90
2022-11-24T19:26:39.847Z,4.90
2022-11-24T19:29:08.381Z,4.89
2022-11-24T19:31:39.350Z,4.86
2022-11-24T19:34:08.078Z,4.86
2022-11-24T19:36:36.462Z,4.86
2022-11-24T19:39:05.257Z,4.90
2022-11-24T19:41:34.223Z,4.93
2022-11-24T19:44:02.012Z,4.95
2022-11-24T19:46:30.193Z,5.01
2022-11-24T19:49:01.789Z,5.02
2022-11-24T19:51:31.612Z,4.99
2022-11-24T19:54:00.352Z,4.99
2022-11-24T19:56:30.749Z,5.03
2022-11-24T19:58:58.712Z,5.05
2022-11-24T20:01:28.817Z,5.07
2022-11-24T20:04:01.302Z,5.07
2022-11-24T20:06:31.907Z,5.07
2022-11-24T20:09:00.784Z,5.09
2022-11-24T20:11:29.335Z,5.12
2022-11-24T20:13:57.925Z,5.16
2022-11-24T20:16:31.117Z,5.18
2022-11-24T20:19:07.533Z,5.21
2022-11-24T20:21:36.969Z,5.24
2022-11-24T20:24:12.380Z,5.24
2022-11-24T20:26:46.674Z,5.17
2022-11-24T20:29:15.443Z,5.10
2022-11-24T20:31:48.952Z,5.08
2022-11-24T20:34:17.742Z,5.08
2022-11-24T20:36:46.981Z,5.07
2022-11-24T20:39:19.597Z,5.07
2022-11-24T20:41:47.472Z,5.10
2022-11-24T20:44:18.317Z,5.12
2022-11-24T20:46:46.643Z,5.16
2022-11-24T20:49:17.199Z,5.21
2022-11-24T20:51:47.758Z,5.26
2022-11-24T20:54:17.660Z,5.28
2022-11-24T20:56:46.559Z,5.30
2022-11-24T20:59:21.445Z,5.33
2022-11-24T21:01:50.350Z,5.34
2022-11-24T21:04:21.450Z,5.32
2022-11-24T21:06:49.936Z,5.31
2022-11-24T21:09:18.456Z,5.27
2022-11-24T21:11:47.259Z,5.25
2022-11-24T21:14:15.619Z,5.25
2022-11-24T21:16:43.979Z,5.31
2022-11-24T21:19:14.238Z,5.36
2022-11-24T21:21:43.275Z,5.40
2022-11-24T21:24:16.314Z,5.43
2022-11-24T21:26:47.540Z,5.39
2022-11-24T21:29:18.839Z,5.35
2022-11-24T21:31:46.802Z,5.31
2022-11-24T21:34:16.640Z,5.32
2022-11-24T21:36:45.141Z,5.33
2022-11-24T21:39:15.869Z,5.31
2022-11-24T21:41:43.780Z,5.33
2022-11-24T21:44:13.382Z,5.36
2022-11-24T21:46:46.256Z,5.41
2022-11-24T21:49:17.283Z,5.48
2022-11-24T21:51:45.006Z,5.57
2022-11-24T21:54:12.843Z,5.61
2022-11-24T21:56:40.624Z,5.63
2022-11-24T21:59:08.556Z,5.67
2022-11-24T22:01:36.342Z,5.71
2022-11-24T22:04:04.690Z,5.73
2022-11-24T22:06:33.266Z,5.74
2022-11-24T22:09:01.231Z,5.74
2022-11-24T22:11:29.014Z,5.71
2022-11-24T22:13:56.740Z,5.69
2022-11-24T22:16:25.558Z,5.67
2022-11-24T22:18:53.429Z,5.65
2022-11-24T22:21:30.646Z,5.62
2022-11-24T22:23:58.796Z,5.62
2022-11-24T22:26:27.598Z,5.67
2022-11-24T22:28:56.637Z,5.71
2022-11-24T22:31:26.495Z,5.71
2022-11-24T22:33:55.453Z,5.71
2022-11-24T22:36:25.082Z,5.71
2022-11-24T22:39:03.163Z,5.71
2022-11-24T22:41:34.979Z,5.69
2022-11-24T22:44:03.001Z,5.58
2022-11-24T22:46:31.910Z,5.53
2022-11-24T22:49:00.910Z,5.44
2022-11-24T22:51:33.469Z,5.32
2022-11-24T22:54:02.945Z,5.29
2022-11-24T22:56:32.547Z,5.27
2022-11-24T22:59:01.517Z,5.34
2022-11-24T23:01:30.584Z,5.43
2022-11-24T23:03:58.388Z,5.47
2022-11-24T23:06:28.765Z,5.50
2022-11-24T23:08:57.955Z,5.53
2022-11-24T23:11:34.862Z,5.57
2022-11-24T23:14:04.000Z,5.62
2022-11-24T23:16:31.795Z,5.63
2022-11-24T23:18:59.774Z,5.61
2022-11-24T23:21:29.321Z,5.57
2022-11-24T23:23:58.900Z,5.53
2022-11-24T23:26:29.920Z,5.50
2022-11-24T23:28:57.607Z,5.50
2022-11-24T23:31:30.269Z,5.55
2022-11-24T23:33:59.722Z,5.61
2022-11-24T23:36:28.238Z,5.65
2022-11-24T23:38:56.362Z,5.68
2022-11-24T23:41:25.358Z,5.73
2022-11-24T23:43:53.203Z,5.80
2022-11-24T23:46:23.013Z,5.82
2022-11-24T23:48:52.902Z,5.82
2022-11-24T23:51:29.435Z,5.77
2022-11-24T23:53:58.121Z,5.72
2022-11-24T23:56:32.307Z,5.70
2022-11-24T23:59:00.975Z,5.70
